Latest Weather Observations for Dum In Mirrie

IDD60901

Issued at 5:51 pm CST Friday 18 January 2019 (issued every 10 minutes, with the page automatically refreshed every 10 minutes)

About weather observations | Map of Darwin area stations | Latest observations for Darwin area | Other Formats
Station Details ID: 014277 Name: DUM IN MIRRIE AIRSTRIP Lat: -12.63 Lon: 130.37 Height: 3.5 m
Data from the previous 72 hours. | See also: Recent months at Dum In Mirrie
Date/Time
CST
Temp
°C
App
Temp
°C
Dew
Point
°C
Rel
Hum
%
Delta-T
°C
Wind Press
QNH
hPa
Press
MSL
hPa
Rain since
9am
mm
Dir  Spd
km/h
Gust
km/h
Spd
kts
Gust
kts
18/05:30pm 31.1 36.8 25.0 70 4.3 WNW 4 9 2 5 1004.3 1004.3 0.0
18/05:00pm 30.9 35.7 24.5 68 4.5 WNW 7 11 4 6 1004.1 1004.1 0.0
18/04:30pm 30.8 36.1 24.9 71 4.2 W 6 11 3 6 1004.3 1004.3 0.0
18/04:00pm 31.0 36.8 25.1 71 4.2 WNW 4 9 2 5 1004.6 1004.6 0.0
18/03:30pm 30.6 36.4 25.2 73 3.8 NW 4 7 2 4 1004.7 1004.7 0.0
18/03:00pm 30.2 35.3 24.6 72 3.9 NW 6 9 3 5 1005.1 1005.1 0.0
18/02:30pm 30.7 35.9 24.8 71 4.1 WNW 6 7 3 4 1005.7 1005.7 0.0
18/02:00pm 30.6 35.5 24.7 71 4.1 WNW 7 9 4 5 1005.9 1005.9 0.0
18/01:30pm 30.8 36.2 25.2 72 4.0 WNW 6 9 3 5 1006.2 1006.2 0.0
18/01:00pm 30.5 35.4 24.4 70 4.3 W 6 9 3 5 1006.5 1006.5 0.0
18/12:30pm 30.8 35.6 24.2 68 4.6 W 6 9 3 5 1006.6 1006.6 0.0
18/12:00pm 31.3 37.0 25.6 71 4.1 WSW 6 9 3 5 1006.8 1006.8 0.0
18/11:30am 30.4 35.9 24.1 69 4.4 E 2 4 1 2 1007.0 1007.0 0.0
18/11:00am 30.4 35.5 24.1 69 4.4 W 4 6 2 3 1007.2 1007.2 0.0
18/10:30am 29.5 34.3 24.1 72 3.8 SE 6 11 3 6 1006.9 1006.9 0.0
18/10:00am 29.6 34.9 24.9 76 3.3 SE 6 11 3 6 1006.8 1006.8 0.0
18/09:30am 28.2 33.4 24.8 82 2.4 SE 6 9 3 5 1006.6 1006.6 0.0
18/09:00am 27.2 32.6 25.2 89 1.4 ESE 6 9 3 5 1006.5 1006.5 23.4
18/08:30am 26.1 31.2 24.7 92 1.0 E 6 9 3 5 1006.5 1006.5 23.4
18/08:00am 26.1 31.9 25.2 95 0.6 SE 4 7 2 4 1006.4 1006.4 23.4
18/07:30am 25.6 31.2 25.4 99 0.1 E 6 11 3 6 1006.1 1006.1 23.4
18/07:00am 24.9 31.2 24.7 99 0.1 CALM 0 0 0 0 1005.2 1005.2 23.4
18/06:30am 24.8 31.0 24.6 99 0.1 CALM 0 0 0 0 1004.5 1004.5 23.4
18/06:00am 24.8 30.6 24.6 99 0.1 NW 2 4 1 2 1004.2 1004.2 23.4
18/05:30am 24.7 30.8 24.4 98 0.2 CALM 0 0 0 0 1004.3 1004.3 23.4
18/05:00am 24.8 30.9 24.5 98 0.2 CALM 0 2 0 1 1004.6 1004.6 23.4
18/04:30am 25.0 31.3 24.7 98 0.2 CALM 0 2 0 1 1004.9 1004.9 23.4
18/04:00am 24.7 30.0 24.4 98 0.2 ENE 4 6 2 3 1004.8 1004.8 23.4
18/03:30am 24.2 28.7 23.9 98 0.2 E 7 13 4 7 1004.9 1004.9 23.4
18/03:00am 24.2 27.8 23.7 97 0.3 E 11 19 6 10 1005.5 1005.5 23.2
18/02:30am 23.8 27.0 23.1 96 0.5 ESE 11 17 6 9 1006.5 1006.5 23.2
18/02:00am 24.3 28.1 24.0 98 0.2 SE 11 20 6 11 1007.2 1007.2 23.2
18/01:30am 24.3 28.4 24.0 98 0.2 SE 9 17 5 9 1007.5 1007.5 23.0
18/01:00am 24.6 29.9 24.4 99 0.1 S 4 7 2 4 1007.5 1007.5 22.0
18/12:30am 24.3 29.8 24.1 99 0.1 SSE 2 7 1 4 1007.9 1007.9 21.2
18/12:00am 24.5 28.8 24.2 98 0.2 SSE 9 17 5 9 1008.3 1008.3 15.8
 
Date/Time
CST
Temp
°C
App
Temp
°C
Dew
Point
°C
Rel
Hum
%
Delta-T
°C
Wind Press
QNH
hPa
Press
MSL
hPa
Rain since
9am
mm
Dir  Spd
km/h
Gust
km/h
Spd
kts
Gust
kts
17/11:30pm 25.6 27.9 22.7 84 2.0 SE 15 33 8 18 1008.1 1008.1 0.0
17/11:00pm 29.6 35.5 24.7 75 3.4 WSW 2 7 1 4 1007.7 1007.7 0.0
17/10:30pm 29.4 34.5 24.7 76 3.3 W 6 11 3 6 1007.3 1007.3 0.0
17/10:00pm 29.5 34.4 24.4 74 3.6 W 6 9 3 5 1007.4 1007.4 0.0
17/09:30pm 29.3 34.0 24.0 73 3.7 WNW 6 9 3 5 1006.8 1006.8 0.0
17/09:00pm 29.2 34.0 24.1 74 3.5 WNW 6 13 3 7 1006.1 1006.1 0.0
17/08:30pm 28.9 34.0 24.0 75 3.4 NW 4 9 2 5 1005.6 1005.6 0.0
17/08:00pm 28.9 34.4 24.0 75 3.4 NW 2 4 1 2 1005.7 1005.7 0.0
17/07:30pm 29.1 33.7 23.8 73 3.7 NNW 6 9 3 5 1004.8 1004.8 0.0
17/07:00pm 30.2 35.3 24.1 70 4.2 NNW 4 6 2 3 1004.2 1004.2 0.0
17/06:30pm 31.2 36.1 24.3 66 4.8 NW 6 9 3 5 1003.5 1003.5 0.0
17/06:00pm 31.4 36.4 24.8 68 4.7 NW 7 13 4 7 1003.3 1003.3 0.0
17/05:30pm 31.6 36.7 25.0 68 4.7 WNW 7 13 4 7 1003.0 1003.0 0.0
17/05:00pm 31.9 37.3 25.5 69 4.5 WNW 7 13 4 7 1003.1 1003.1 0.0
17/04:30pm 31.8 37.1 25.2 68 4.7 WNW 7 13 4 7 1003.3 1003.3 0.0
17/04:00pm 31.3 36.6 24.9 69 4.5 WNW 6 9 3 5 1003.7 1003.7 0.0
17/03:30pm 31.7 36.6 24.3 65 5.2 WNW 6 9 3 5 1004.1 1004.1 0.0
17/03:00pm 31.9 37.0 24.7 65 5.1 WNW 6 9 3 5 1004.4 1004.4 0.0
17/02:30pm 33.0 37.5 23.0 55 6.9 ESE 4 7 2 4 1004.7 1004.7 0.0
17/02:00pm 32.6 37.9 24.4 62 5.7 S 4 9 2 5 1005.1 1005.1 0.0
17/01:30pm 31.5 36.8 24.4 66 5.0 SSE 4 7 2 4 1005.4 1005.4 0.0
17/01:00pm 30.5 36.1 24.9 72 3.9 SE 4 9 2 5 1005.9 1005.9 0.0
17/12:30pm 29.4 33.9 23.6 71 4.0 S 6 11 3 6 1006.4 1006.4 0.0
17/12:00pm 29.3 34.2 24.4 75 3.4 SSE 6 11 3 6 1006.9 1006.9 0.0
17/11:30am 28.4 33.6 24.2 78 2.9 SSE 4 6 2 3 1007.2 1007.2 0.0
17/11:00am 27.6 32.1 23.6 79 2.7 ESE 6 9 3 5 1007.3 1007.3 0.0
17/10:30am 26.8 31.7 24.3 86 1.7 SE 6 9 3 5 1007.6 1007.6 0.0
17/10:00am 25.9 31.3 24.5 92 1.0 SE 4 9 2 5 1007.6 1007.6 0.0
17/09:30am 25.1 30.3 24.8 98 0.2 SE 6 13 3 7 1007.6 1007.6 0.0
17/09:00am 24.7 30.8 24.5 99 0.1 CALM 0 0 0 0 1007.4 1007.4 69.0
17/08:30am 24.2 30.0 24.0 99 0.1 CALM 0 0 0 0 1007.5 1007.5 68.8
17/08:00am 23.9 29.6 23.7 99 0.1 CALM 0 0 0 0 1007.2 1007.2 68.2
17/07:30am 23.8 29.4 23.6 99 0.1 CALM 0 0 0 0 1007.3 1007.3 67.2
17/07:00am 23.6 28.3 23.4 99 0.1 NNE 4 6 2 3 1007.2 1007.2 66.0
17/06:30am 23.5 28.9 23.3 99 0.1 CALM 0 0 0 0 1007.0 1007.0 65.4
17/06:00am 23.6 28.0 23.4 99 0.1 SSE 6 11 3 6 1006.8 1006.8 65.2
17/05:30am 23.3 26.5 23.1 99 0.1 ESE 11 19 6 10 1006.6 1006.6 63.8
17/05:00am 23.7 27.2 23.5 99 0.1 ENE 11 20 6 11 1006.7 1006.7 47.2
17/04:30am 24.4 25.0 24.1 98 0.2 E 28 50 15 27 1006.0 1006.0 13.2
17/04:22am 24.3 24.6 23.6 96 0.5 ENE 28 50 15 27 1005.6 1005.6 7.8
17/04:00am 27.8 31.9 23.2 76 3.1 SSE 7 26 4 14 1006.0 1006.0 0.0
17/03:30am 29.2 34.8 25.4 80 2.7 WSW 6 11 3 6 1005.6 1005.6 0.0
17/03:00am 29.3 35.1 25.1 78 3.0 WSW 4 7 2 4 1006.0 1006.0 0.0
17/02:30am 29.3 34.2 25.3 79 2.8 W 9 15 5 8 1005.7 1005.7 0.0
17/02:00am 29.1 34.6 25.3 80 2.7 WNW 6 13 3 7 1005.7 1005.7 0.0
17/01:30am 29.2 34.8 25.4 80 2.7 W 6 13 3 7 1005.9 1005.9 0.0
17/01:00am 29.4 34.5 25.6 80 2.7 W 9 15 5 8 1006.5 1006.5 0.0
17/12:30am 29.0 34.7 25.0 79 2.8 W 4 9 2 5 1007.2 1007.2 0.0
17/12:00am 28.6 34.4 25.2 82 2.4 W 4 9 2 5 1007.4 1007.4 0.0
 
Date/Time
CST
Temp
°C
App
Temp
°C
Dew
Point
°C
Rel
Hum
%
Delta-T
°C
Wind Press
QNH
hPa
Press
MSL
hPa
Rain since
9am
mm
Dir  Spd
km/h
Gust
km/h
Spd
kts
Gust
kts
16/11:30pm 27.0 33.5 25.6 92 1.0 W 2 4 1 2 1007.6 1007.6 0.0
16/11:00pm 26.5 32.9 25.5 94 0.7 NW 2 4 1 2 1008.1 1008.1 0.0
16/10:30pm 26.6 33.3 25.4 93 0.8 CALM 0 0 0 0 1008.3 1008.3 0.0
16/10:00pm 26.8 33.5 25.4 92 1.0 CALM 0 0 0 0 1008.1 1008.1 0.0
16/09:30pm 26.9 33.4 25.1 90 1.3 CALM 0 0 0 0 1007.3 1007.3 0.0
16/09:00pm 27.2 33.9 25.4 90 1.3 CALM 0 0 0 0 1006.7 1006.7 0.0
16/08:30pm 27.3 33.5 24.6 85 1.9 CALM 0 0 0 0 1006.4 1006.4 0.0
16/08:00pm 28.1 34.4 24.7 82 2.4 CALM 0 0 0 0 1005.8 1005.8 0.0
16/07:30pm 29.3 35.1 24.0 73 3.7 CALM 0 0 0 0 1005.5 1005.5 0.0
16/07:00pm 30.2 35.3 23.4 67 4.7 WNW 2 7 1 4 1005.1 1005.1 0.0
16/06:30pm 30.9 35.5 23.8 66 4.9 NW 6 9 3 5 1004.5 1004.5 0.0
16/06:00pm 31.3 36.2 23.7 64 5.3 NNW 4 11 2 6 1004.5 1004.5 0.0
16/05:30pm 31.7 36.4 24.3 65 5.2 WNW 7 13 4 7 1004.6 1004.6 0.0
16/05:00pm 31.8 36.3 23.6 62 5.7 NW 6 11 3 6 1004.6 1004.6 0.0
16/04:30pm 32.4 36.7 23.6 59 6.1 NW 7 13 4 7 1004.9 1004.9 0.0
16/04:00pm 32.1 36.2 23.9 62 5.7 WNW 9 15 5 8 1004.9 1004.9 0.0
16/03:30pm 32.0 36.2 24.1 63 5.5 WNW 9 15 5 8 1005.1 1005.1 0.0
16/03:00pm 32.0 35.9 24.3 63 5.4 WNW 11 17 6 9 1005.5 1005.5 0.0
16/02:30pm 32.5 36.9 24.5 62 5.6 WNW 9 17 5 9 1005.8 1005.8 0.0
16/02:00pm 32.8 36.7 24.3 61 6.0 NNW 11 17 6 9 1006.1 1006.1 0.0
16/01:30pm 32.8 36.7 22.9 56 6.8 N 7 11 4 6 1006.3 1006.3 0.0
16/01:00pm 32.2 36.4 23.4 59 6.1 WSW 7 11 4 6 1006.7 1006.7 0.0
16/12:30pm 31.4 35.6 23.5 63 5.5 W 7 13 4 7 1007.0 1007.0 0.0
16/12:00pm 31.4 35.2 22.4 59 6.1 W 6 9 3 5 1007.5 1007.5 0.0
16/11:30am 32.6 36.9 22.7 56 6.8 ENE 4 9 2 5 1007.9 1007.9 0.0
16/11:00am 30.9 34.5 23.0 62 5.4 ESE 9 15 5 8 1008.2 1008.2 0.0
16/10:30am 30.7 36.2 24.1 68 4.6 S 2 7 1 4 1008.0 1008.0 0.0
16/10:00am 30.1 36.1 24.3 71 4.0 CALM 0 2 0 1 1008.0 1008.0 0.0
16/09:30am 29.5 34.8 24.4 74 3.6 NNE 4 7 2 4 1008.0 1008.0 0.0
16/09:00am 28.6 34.4 25.2 82 2.4 N 4 6 2 3 1007.8 1007.8 21.4
16/08:30am 27.7 33.8 25.1 86 1.8 NNE 2 6 1 3 1007.7 1007.7 21.4
16/08:00am 26.6 32.8 25.2 92 1.0 NNE 2 4 1 2 1007.6 1007.6 21.4
16/07:30am 26.0 31.8 24.6 92 1.0 NE 2 6 1 3 1007.6 1007.6 21.4
16/07:00am 25.5 30.2 23.9 91 1.1 ENE 6 11 3 6 1007.2 1007.2 21.4
16/06:30am 25.3 30.7 23.9 92 1.0 E 2 6 1 3 1007.0 1007.0 21.4
16/06:00am 25.2 29.1 22.9 87 1.6 ENE 7 9 4 5 1006.5 1006.5 21.4
16/05:30am 25.5 29.2 22.6 84 2.0 ENE 7 11 4 6 1006.4 1006.4 21.2
16/05:00am 25.5 29.3 22.8 85 1.8 ENE 7 11 4 6 1006.4 1006.4 21.2
16/04:30am 25.3 29.2 23.0 87 1.6 ENE 7 13 4 7 1006.4 1006.4 21.2
16/04:00am 25.0 29.4 23.4 91 1.1 ENE 6 11 3 6 1006.8 1006.8 21.2
16/03:30am 25.4 30.5 24.9 97 0.3 E 7 9 4 5 1006.9 1006.9 21.2
16/03:00am 25.6 30.2 25.3 98 0.2 E 11 20 6 11 1007.1 1007.1 21.2
16/02:30am 25.6 31.0 25.4 99 0.1 E 7 15 4 8 1007.1 1007.1 21.0
16/02:00am 25.3 31.8 25.1 99 0.1 CALM 0 0 0 0 1007.1 1007.1 20.8
16/01:30am 25.3 31.4 25.0 98 0.2 E 2 4 1 2 1007.5 1007.5 20.8
16/01:00am 25.1 31.1 24.8 98 0.2 ESE 2 6 1 3 1007.6 1007.6 20.8
16/12:30am 25.2 31.6 24.9 98 0.2 CALM 0 0 0 0 1008.0 1008.0 20.6
16/12:00am 25.0 30.5 24.7 98 0.2 ESE 4 6 2 3 1008.3 1008.3 20.6
 
Date/Time
CST
Temp
°C
App
Temp
°C
Dew
Point
°C
Rel
Hum
%
Delta-T
°C
Wind Press
QNH
hPa
Press
MSL
hPa
Rain since
9am
mm
Dir  Spd
km/h
Gust
km/h
Spd
kts
Gust
kts
15/11:30pm 24.9 30.4 24.0 95 0.6 SE 2 6 1 3 1008.7 1008.7 20.0
15/11:00pm 24.9 30.0 24.0 95 0.6 SE 4 6 2 3 1008.8 1008.8 19.6
15/10:30pm 25.0 28.9 23.6 92 1.0 SSE 9 22 5 12 1008.9 1008.9 19.4
15/10:00pm 25.9 31.7 24.5 92 1.0 WSW 2 7 1 4 1008.3 1008.3 19.2
15/09:30pm 25.0 28.8 24.7 98 0.2 SSW 13 20 7 11 1008.4 1008.4 19.0
15/09:00pm 25.7 31.1 25.4 98 0.2 E 7 19 4 10 1008.3 1008.3 12.0
15/08:30pm 26.6 30.3 23.3 82 2.3 SSE 9 17 5 9 1007.4 1007.4 0.0
15/08:00pm 28.3 33.7 24.5 80 2.6 E 4 9 2 5 1006.9 1006.9 0.0
15/07:30pm 29.3 34.6 25.3 79 2.8 NW 7 13 4 7 1006.2 1006.2 0.0
15/07:00pm 29.4 34.8 25.2 78 3.0 NNW 6 13 3 7 1005.6 1005.6 0.0
15/06:30pm 29.4 34.5 25.6 80 2.7 NNW 9 19 5 10 1005.3 1005.3 0.0
15/06:00pm 30.5 35.4 24.6 70 4.1 NNW 7 11 4 6 1005.2 1005.2 0.0

Latest Capital City Observations: Canberra | Sydney | Melbourne | Brisbane | Adelaide | Perth | Hobart | Darwin

Other Formats:

Comma delimited format used in spreadsheet applications
http://www.bom.gov.au/fwo/IDD60901/IDD60901.94116.axf

JavaScript Object Notation format (JSON) in row-major order
http://www.bom.gov.au/fwo/IDD60901/IDD60901.94116.json